Cole Camp, MO (65325)

5:49 PM CDT on August 25, 2016 (GMT -0500)
Rattlesnake Observatory | | Change Station

Elev 889 ft 38.63 °N, 93.11 °W | Updated 6 seconds ago

Mostly Cloudy
Mostly Cloudy
89.8 °F
Feels Like 102 °F
N
0.0
Wind Variable Wind from North
Gusts 0.0 mph

Today
High -- | Low -- °F
--% Chance of Precip.
Yesterday
High -- | Low -- °F
Precip. -- in
Pressure 30.00 in
Visibility 10.0 miles
Clouds Mostly Cloudy 3500 ft
Heat Index 102 °F
Dew Point 76 °F
Humidity 64%
Rainfall 0.02 in
Snow Depth Not available.
6:36 AM 7:52 PM
Last Quarter, 41% visible
METAR KDMO 252153Z AUTO 29003KT 10SM BKN035 30/23 A3002 RMK AO2 SLP158 T03000228
Pressure 30.00 in
Visibility 10.0 miles
Clouds Mostly Cloudy 3500 ft
Heat Index 102 °F
Dew Point 76 °F
Humidity 64%
Rainfall 0.02 in
Snow Depth Not available.
6:36 AM 7:52 PM
Last Quarter, 41% visible
METAR KDMO 252153Z AUTO 29003KT 10SM BKN035 30/23 A3002 RMK AO2 SLP158 T03000228
A tropical disturbance pushing toward the Bahamas, is expected to develop into a tropical depression or storm, and will likely target Florida and the Gulf Coast this weekend into next week.

Right now, the disturbance remains a broad area of low pressure pushing through the Dominican Republic and Haiti, headed toward the southeast Bahamas. Rainfall totals over 3 inches (with locally higher amounts) are expected in HispaƱiola, particularly over elevated terrain.

10-Day Weather Forecast

Almanac

Astronomy

Aug. 25, 2016 Rise Set
Actual Time
Civil Twilight
Nautical Twilight
Astronomical Twilight
Moon
Length of Visible Light
Length of Day
Tomorrow will be .
, % of the Moon is Illuminated

Today's Extremes

State Highs State Lows

Community

WunderPhotos

Upload Photos

1,934,952 photos uploaded!

WunderBlog® & News

Nearby

Air Quality

  Air Quality AQ Index Pollutant
Not available.

Snow Depth

Station Depth Elevation

Earthquake Activity

City Distance Mag. Time & Date
Minimum magnitude displayed is 2.5.

Coastal Water Temperatures

Place Temperature

Stations

Nearby Weather Stations

Station Location Temp. Windchill Dew Point Humidity Wind Precip. Elev Updated Type
                   

Watches & Warnings

There are currently no watches in effect.